Time;durP1;ratioP1;P1;durP2;ratioP2;P2;SDS_P1;SDS_P2;PMS_P1;PMS_P2;Temp;Humidity;BMP_temperature;BMP_pressure;BME280_temperature;BME280_humidity;BME280_pressure;Samples;Min_cycle;Max_cycle;Signal;HPM_P1;HPM_P2
2021/03/24 00:01:47;;;;;;;;;;;;;;;5.05;100.00;101613.88;5073360;28;19924;-67
2021/03/24 00:04:13;;;;;;;;;;;;;;;5.06;100.00;101626.38;5073510;28;19959;-67
2021/03/24 00:06:39;;;;;;;;;;;;;;;5.06;100.00;101623.69;5073677;28;20445;-67
2021/03/24 00:09:06;;;;;;;;;;;;;;;5.06;100.00;101625.50;5073290;28;20282;-66
2021/03/24 00:11:32;;;;;;;;;;;;;;;5.03;100.00;101622.00;5073333;28;19929;-67
2021/03/24 00:13:58;;;;;;;;;;;;;;;5.02;100.00;101622.06;5073386;28;20015;-67
2021/03/24 00:16:24;;;;;;;;;;;;;;;5.02;100.00;101628.34;5073474;28;19928;-67
2021/03/24 00:18:50;;;;;;;;;;;;;;;5.04;100.00;101617.50;5071958;28;19924;-67
2021/03/24 00:21:17;;;;;;;;;;;;;;;5.07;100.00;101628.13;5073052;28;19928;-67
2021/03/24 00:23:43;;;;;;;;;;;;;;;5.08;100.00;101619.13;5055400;28;20411;-67
2021/03/24 00:26:08;;;;;;;;;;;;;;;5.08;100.00;101616.44;5073157;28;19925;-67
2021/03/24 00:28:34;;;;;;;;;;;;;;;5.08;100.00;101621.81;5072958;28;19931;-67
2021/03/24 00:31:00;;;;;;;;;;;;;;;5.06;100.00;101623.69;5072937;28;19954;-67
2021/03/24 00:33:27;;;;;;;;;;;;;;;5.07;100.00;101620.06;5073038;28;20027;-67
2021/03/24 00:35:53;;;;;;;;;;;;;;;5.08;100.00;101619.13;5073137;28;20138;-67
2021/03/24 00:38:20;;;;;;;;;;;;;;;5.10;100.00;101614.53;5072430;28;19936;-67
2021/03/24 00:40:47;;;;;;;;;;;;;;;5.09;100.00;101618.19;5054870;28;19925;-67
2021/03/24 00:43:13;;;;;;;;;;;;;;;5.09;100.00;101615.50;5072497;28;19981;-67
2021/03/24 00:45:40;;;;;;;;;;;;;;;5.10;100.00;101617.22;5072936;28;19924;-67
2021/03/24 00:48:07;;;;;;;;;;;;;;;5.09;100.00;101607.41;5072455;28;20297;-67
2021/03/24 00:50:34;;;;;;;;;;;;;;;5.10;100.00;101613.66;5054926;28;20031;-67
2021/03/24 00:53:00;;;;;;;;;;;;;;;5.10;100.00;101606.44;5072715;28;19925;-67
2021/03/24 00:55:26;;;;;;;;;;;;;;;5.11;100.00;101612.72;5072663;28;19943;-67
2021/03/24 00:57:52;;;;;;;;;;;;;;;5.11;100.00;101608.22;5072486;28;19932;-67
2021/03/24 01:00:19;;;;;;;;;;;;;;;5.12;100.00;101609.97;5072303;28;19929;-67
2021/03/24 01:02:46;;;;;;;;;;;;;;;5.13;100.00;101605.44;5072607;28;20427;-67
2021/03/24 01:05:13;;;;;;;;;;;;;;;5.13;100.00;101611.72;5072465;28;19951;-67
2021/03/24 01:07:40;;;;;;;;;;;;;;;5.14;100.00;101602.69;5072676;28;19925;-67
2021/03/24 01:10:11;;;;;;;;;;;;;;;5.17;100.00;101607.06;5071944;28;19943;-67
2021/03/24 01:12:37;;;;;;;;;;;;;;;5.19;100.00;101602.50;5072442;28;19930;-67
2021/03/24 01:15:03;;;;;;;;;;;;;;;5.19;100.00;101597.09;5071838;28;19929;-67
2021/03/24 01:17:29;;;;;;;;;;;;;;;5.17;100.00;101593.59;5072233;28;19932;-67
2021/03/24 01:19:55;;;;;;;;;;;;;;;5.14;100.00;101604.50;5071765;28;19928;-67
2021/03/24 01:22:21;;;;;;;;;;;;;;;5.13;100.00;101600.97;5071993;28;19990;-68
2021/03/24 01:24:47;;;;;;;;;;;;;;;5.15;100.00;101595.50;5072014;28;19924;-67
2021/03/24 01:27:13;;;;;;;;;;;;;;;5.15;100.00;101599.06;5072080;28;19931;-67
2021/03/24 01:29:39;;;;;;;;;;;;;;;5.16;100.00;101598.13;5071574;28;20381;-67
2021/03/24 01:32:05;;;;;;;;;;;;;;;5.16;100.00;101598.13;5053681;28;19932;-67
2021/03/24 01:34:31;;;;;;;;;;;;;;;5.14;100.00;101605.38;5054383;28;19928;-67
2021/03/24 01:36:57;;;;;;;;;;;;;;;5.14;100.00;101599.97;5071822;28;20458;-67
2021/03/24 01:39:23;;;;;;;;;;;;;;;5.11;100.00;101600.13;5071511;28;19925;-67
2021/03/24 01:41:50;;;;;;;;;;;;;;;5.10;100.00;101602.91;5071740;28;19967;-67
2021/03/24 01:44:16;;;;;;;;;;;;;;;5.09;100.00;101602.03;5071667;28;19925;-67
2021/03/24 01:46:43;;;;;;;;;;;;;;;5.09;100.00;101593.97;5071859;28;20439;-67
2021/03/24 01:49:20;;;;;;;;;;;;;;;5.09;100.00;101599.34;5071421;28;19928;-67
2021/03/24 01:51:47;;;;;;;;;;;;;;;5.09;100.00;101591.28;5071715;28;19928;-67
2021/03/24 01:54:15;;;;;;;;;;;;;;;5.09;100.00;101593.97;5071520;28;19929;-67
2021/03/24 01:56:43;;;;;;;;;;;;;;;5.10;100.00;101595.69;5071876;28;19939;-67
2021/03/24 01:59:10;;;;;;;;;;;;;;;5.12;100.00;101604.56;5071266;28;19924;-67
2021/03/24 02:01:36;;;;;;;;;;;;;;;5.10;100.00;101592.13;5053575;28;19928;-67
2021/03/24 02:04:03;;;;;;;;;;;;;;;5.12;100.00;101595.66;5071330;28;19967;-67
2021/03/24 02:06:31;;;;;;;;;;;;;;;5.09;100.00;101599.34;5071435;28;19931;-67
2021/03/24 02:09:05;;;;;;;;;;;;;;;5.09;100.00;101588.56;5071018;28;19925;-67
2021/03/24 02:11:34;;;;;;;;;;;;;;;5.10;100.00;101594.81;5071207;28;19960;-67
2021/03/24 02:14:03;;;;;;;;;;;;;;;5.10;100.00;101601.06;5071595;28;20015;-67
2021/03/24 02:16:31;;;;;;;;;;;;;;;5.11;100.00;101593.88;5071490;28;19928;-67
2021/03/24 02:18:58;;;;;;;;;;;;;;;5.11;100.00;101600.13;5071226;28;19931;-67
2021/03/24 02:21:26;;;;;;;;;;;;;;;5.12;100.00;101595.66;5071545;28;19924;-67
2021/03/24 02:23:58;;;;;;;;;;;;;;;5.10;100.00;101598.38;5071173;28;19935;-67
2021/03/24 02:26:27;;;;;;;;;;;;;;;5.10;100.00;101595.69;5071310;28;19924;-67
2021/03/24 02:28:55;;;;;;;;;;;;;;;5.09;100.00;101599.34;5070825;28;20001;-67
2021/03/24 02:31:22;;;;;;;;;;;;;;;5.06;100.00;101596.75;5070612;28;19939;-67
2021/03/24 02:33:50;;;;;;;;;;;;;;;5.07;100.00;101600.34;5071193;28;19924;-67
2021/03/24 02:36:18;;;;;;;;;;;;;;;5.07;100.00;101594.97;5071113;28;19954;-68
2021/03/24 02:38:45;;;;;;;;;;;;;;;5.05;100.00;101600.41;5071065;28;19929;-67
2021/03/24 02:41:11;;;;;;;;;;;;;;;5.07;100.00;101603.03;5072748;28;19967;-67
2021/03/24 02:43:38;;;;;;;;;;;;;;;5.08;100.00;101602.06;5075219;28;19925;-67
2021/03/24 02:46:06;;;;;;;;;;;;;;;5.07;100.00;101601.22;5075107;28;19935;-67
2021/03/24 02:48:33;;;;;;;;;;;;;;;5.09;100.00;101603.84;5074848;28;19940;-67
2021/03/24 02:51:00;;;;;;;;;;;;;;;5.07;100.00;101598.53;5074973;28;19924;-67
2021/03/24 02:53:28;;;;;;;;;;;;;;;5.07;100.00;101606.59;5075014;28;19928;-67
2021/03/24 02:55:56;;;;;;;;;;;;;;;5.05;100.00;101605.81;5074906;28;19928;-67
2021/03/24 02:58:22;;;;;;;;;;;;;;;5.06;100.00;101604.84;5074661;28;20175;-67
2021/03/24 03:00:48;;;;;;;;;;;;;;;5.04;100.00;101604.06;5074805;28;19928;-66
2021/03/24 03:03:16;;;;;;;;;;;;;;;5.02;100.00;101600.53;5074770;28;19989;-66
2021/03/24 03:05:43;;;;;;;;;;;;;;;5.02;100.00;101598.75;5074756;28;20410;-67
2021/03/24 03:08:11;;;;;;;;;;;;;;;5.01;100.00;101594.28;5074177;28;19936;-67
2021/03/24 03:10:40;;;;;;;;;;;;;;;5.00;100.00;101600.59;5074585;28;20325;-67
2021/03/24 03:13:08;;;;;;;;;;;;;;;5.00;100.00;101595.22;5074828;28;19932;-67
2021/03/24 03:15:37;;;;;;;;;;;;;;;4.98;100.00;101602.50;5073798;28;22548;-67
2021/03/24 03:18:06;;;;;;;;;;;;;;;4.99;100.00;101603.38;5074370;28;19932;-67
2021/03/24 03:20:34;;;;;;;;;;;;;;;4.97;100.00;101599.84;5074326;28;19928;-67
2021/03/24 03:23:03;;;;;;;;;;;;;;;4.95;100.00;101591.84;5074419;28;19978;-67
2021/03/24 03:25:30;;;;;;;;;;;;;;;4.94;100.00;101600.00;5074408;28;19932;-67
2021/03/24 03:27:57;;;;;;;;;;;;;;;4.93;100.00;101598.25;5074115;28;19977;-67
2021/03/24 03:30:25;;;;;;;;;;;;;;;4.90;100.00;101599.25;5074143;28;19925;-67
2021/03/24 03:32:53;;;;;;;;;;;;;;;4.88;100.00;101597.56;5074429;28;20191;-67
2021/03/24 03:35:21;;;;;;;;;;;;;;;4.86;100.00;101597.63;5056407;28;20293;-67
2021/03/24 03:37:50;;;;;;;;;;;;;;;4.86;100.00;101592.25;5074150;28;19931;-67
2021/03/24 03:40:17;;;;;;;;;;;;;;;4.85;100.00;101591.41;5073751;28;19931;-66
2021/03/24 03:42:43;;;;;;;;;;;;;;;4.83;100.00;101590.56;5074099;28;19983;-66
2021/03/24 03:45:10;;;;;;;;;;;;;;;4.82;100.00;101588.84;5073701;28;20011;-67
2021/03/24 03:47:38;;;;;;;;;;;;;;;4.82;100.00;101594.22;5073921;28;20306;-67
2021/03/24 03:50:05;;;;;;;;;;;;;;;4.80;100.00;101596.09;5073557;28;20254;-66
2021/03/24 03:52:36;;;;;;;;;;;;;;;4.79;100.00;101601.56;5055880;28;19932;-67
2021/03/24 03:55:09;;;;;;;;;;;;;;;4.78;100.00;101600.66;5073820;28;19932;-67
2021/03/24 03:57:36;;;;;;;;;;;;;;;4.78;100.00;101597.09;5073843;28;19928;-67
2021/03/24 04:00:10;;;;;;;;;;;;;;;4.78;100.00;101592.59;5073396;28;19928;-67
2021/03/24 04:02:39;;;;;;;;;;;;;;;4.78;100.00;101591.72;5055561;28;20015;-67
2021/03/24 04:05:06;;;;;;;;;;;;;;;4.78;100.00;101592.59;5074002;28;20019;-66
2021/03/24 04:07:35;;;;;;;;;;;;;;;4.79;100.00;101588.09;5073655;28;20433;-66
2021/03/24 04:10:02;;;;;;;;;;;;;;;4.77;100.00;101595.34;5073108;28;19924;-66
2021/03/24 04:12:30;;;;;;;;;;;;;;;4.76;100.00;101591.78;5073448;28;20014;-66
2021/03/24 04:14:56;;;;;;;;;;;;;;;4.76;100.00;101590.94;5073418;28;19925;-66
2021/03/24 04:17:24;;;;;;;;;;;;;;;4.75;100.00;101584.66;5073397;28;19925;-66
2021/03/24 04:19:52;;;;;;;;;;;;;;;4.75;100.00;101587.34;5073041;28;20054;-66
2021/03/24 04:22:20;;;;;;;;;;;;;;;4.74;100.00;101582.91;5072687;28;20353;-66
2021/03/24 04:24:48;;;;;;;;;;;;;;;4.74;100.00;101580.22;5073692;28;19925;-66
2021/03/24 04:27:15;;;;;;;;;;;;;;;4.73;100.00;101586.56;5073301;28;19932;-66
2021/03/24 04:29:43;;;;;;;;;;;;;;;4.73;100.00;101581.19;5073202;28;19947;-66
2021/03/24 04:32:10;;;;;;;;;;;;;;;4.71;100.00;101582.19;5073196;28;20410;-67
2021/03/24 04:34:36;;;;;;;;;;;;;;;4.71;100.00;101583.03;5073105;28;19924;-66
2021/03/24 04:37:06;;;;;;;;;;;;;;;4.71;100.00;101580.34;5072971;28;20357;-66
2021/03/24 04:39:33;;;;;;;;;;;;;;;4.71;100.00;101583.03;5072832;28;20021;-66
2021/03/24 04:42:01;;;;;;;;;;;;;;;4.73;100.00;101586.56;5072889;28;19929;-67
2021/03/24 04:44:28;;;;;;;;;;;;;;;4.74;100.00;101587.41;5073238;28;20396;-66
2021/03/24 04:46:58;;;;;;;;;;;;;;;4.73;100.00;101582.97;5072422;28;19928;-66
2021/03/24 04:49:25;;;;;;;;;;;;;;;4.72;100.00;101589.28;5072503;28;19925;-66
2021/03/24 04:51:53;;;;;;;;;;;;;;;4.71;100.00;101584.88;5072820;28;19977;-66
2021/03/24 04:54:21;;;;;;;;;;;;;;;4.68;100.00;101578.66;5072717;28;19924;-66
2021/03/24 04:56:49;;;;;;;;;;;;;;;4.68;100.00;101584.03;5072815;28;19948;-66
2021/03/24 04:59:18;;;;;;;;;;;;;;;4.68;100.00;101578.66;5072427;28;19932;-66
2021/03/24 05:01:45;;;;;;;;;;;;;;;4.70;100.00;101575.91;5072675;28;19936;-66
2021/03/24 05:04:17;;;;;;;;;;;;;;;4.71;100.00;101584.88;5072034;28;20564;-66
2021/03/24 05:06:45;;;;;;;;;;;;;;;4.70;100.00;101581.28;5054938;28;20378;-66
2021/03/24 05:09:11;;;;;;;;;;;;;;;4.70;100.00;101581.28;5072317;28;19967;-66
2021/03/24 05:11:40;;;;;;;;;;;;;;;4.68;100.00;101588.56;5072587;28;20276;-66
2021/03/24 05:14:11;;;;;;;;;;;;;;;4.68;100.00;101581.34;5072664;28;19924;-65
2021/03/24 05:16:39;;;;;;;;;;;;;;;4.69;100.00;101574.19;5072132;28;20388;-66
2021/03/24 05:19:05;;;;;;;;;;;;;;;4.71;100.00;101584.88;5071958;28;19985;-66
2021/03/24 05:21:50;;;;;;;;;;;;;;;4.72;100.00;101584.81;5072169;28;19928;-66
2021/03/24 05:24:18;;;;;;;;;;;;;;;4.74;100.00;101588.28;5054330;28;20385;-66
2021/03/24 05:26:45;;;;;;;;;;;;;;;4.70;100.00;101578.59;5072447;28;19986;-66
2021/03/24 05:29:13;;;;;;;;;;;;;;;4.70;100.00;101578.59;5071951;28;20313;-67
2021/03/24 05:31:41;;;;;;;;;;;;;;;4.71;100.00;101577.66;5071717;28;20293;-66
2021/03/24 05:34:12;;;;;;;;;;;;;;;4.75;100.00;101579.28;5046233;28;20350;-66
2021/03/24 05:36:40;;;;;;;;;;;;;;;4.80;100.00;101579.97;5066659;28;19993;-67
2021/03/24 05:39:11;;;;;;;;;;;;;;;4.82;100.00;101578.09;5053028;28;19951;-68
2021/03/24 05:41:41;;;;;;;;;;;;;;;4.82;100.00;101570.03;5071662;28;19932;-65
2021/03/24 05:44:18;;;;;;;;;;;;;;;4.85;100.00;101575.25;5067127;28;20321;-68
2021/03/24 05:46:56;;;;;;;;;;;;;;;4.89;100.00;101576.00;5071775;28;19928;-68
2021/03/24 05:49:28;;;;;;;;;;;;;;;4.91;100.00;101566.03;5056732;28;20008;-67
2021/03/24 05:52:04;;;;;;;;;;;;;;;4.95;100.00;101574.84;5059622;28;20009;-67
2021/03/24 05:54:38;;;;;;;;;;;;;;;4.98;100.00;101580.09;5051185;28;19931;-67
2021/03/24 05:57:13;;;;;;;;;;;;;;;5.06;100.00;101587.81;5054122;28;19933;-67
2021/03/24 05:59:43;;;;;;;;;;;;;;;5.09;100.00;101591.28;5069608;28;20386;-67
2021/03/24 06:02:12;;;;;;;;;;;;;;;5.09;100.00;101604.72;5071490;28;19924;-67
2021/03/24 06:04:41;;;;;;;;;;;;;;;5.06;100.00;101596.75;5069922;28;19932;-67
2021/03/24 06:07:28;;;;;;;;;;;;;;;5.10;100.00;101595.69;5071078;28;19970;-68
2021/03/24 06:10:02;;;;;;;;;;;;;;;5.16;100.00;101600.81;5067686;28;19978;-67
2021/03/24 06:12:43;;;;;;;;;;;;;;;5.19;100.00;101600.66;5071035;28;20002;-67
2021/03/24 06:15:21;;;;;;;;;;;;;;;5.25;100.00;101607.63;5066391;28;20328;-67
2021/03/24 06:18:04;;;;;;;;;;;;;;;5.31;100.00;101609.16;5071166;28;19978;-68
2021/03/24 06:20:34;;;;;;;;;;;;;;;5.36;100.00;101607.97;5033302;28;19968;-67
2021/03/24 06:23:17;;;;;;;;;;;;;;;5.44;100.00;101604.94;5033414;28;20365;-67
2021/03/24 06:25:45;;;;;;;;;;;;;;;5.55;100.00;101603.59;5058959;28;20368;-68
2021/03/24 06:28:29;;;;;;;;;;;;;;;5.58;100.00;101601.59;5074233;28;20389;-68
2021/03/24 06:31:05;;;;;;;;;;;;;;;5.63;100.00;101609.50;5090497;28;20385;-66
2021/03/24 06:33:52;;;;;;;;;;;;;;;5.72;100.00;101611.75;5072759;28;19928;-66
2021/03/24 06:36:30;;;;;;;;;;;;;;;5.72;100.00;101622.53;5071048;28;19924;-66
2021/03/24 06:39:09;;;;;;;;;;;;;;;5.73;100.00;101616.19;5067242;28;19924;-66
2021/03/24 06:41:49;;;;;;;;;;;;;;;5.82;100.00;101615.75;5062396;28;20290;-66
2021/03/24 06:44:31;;;;;;;;;;;;;;;5.87;100.00;101613.72;5062223;28;19925;-66
2021/03/24 06:47:02;;;;;;;;;;;;;;;6.01;100.00;101607.72;5049980;28;20480;-66
2021/03/24 06:49:33;;;;;;;;;;;;;;;6.07;100.00;101611.06;5070399;28;19925;-66
2021/03/24 06:52:23;;;;;;;;;;;;;;;6.11;100.00;101613.53;5051076;28;19932;-66
2021/03/24 06:55:03;;;;;;;;;;;;;;;6.11;100.00;101610.84;5066655;28;19925;-66
2021/03/24 06:57:41;;;;;;;;;;;;;;;6.17;100.00;101609.66;5041080;28;19932;-67
2021/03/24 07:00:24;;;;;;;;;;;;;;;6.28;100.00;101611.81;5051750;28;19933;-67
2021/03/24 07:03:05;;;;;;;;;;;;;;;6.36;100.00;101615.03;5050989;28;19925;-67
2021/03/24 07:05:45;;;;;;;;;;;;;;;6.50;100.00;101606.25;5064164;28;19929;-67
2021/03/24 07:08:26;;;;;;;;;;;;;;;6.60;100.00;101617.44;5067435;28;19925;-67
2021/03/24 07:10:57;;;;;;;;;;;;;;;6.61;100.00;101619.19;5054530;28;19925;-68
2021/03/24 07:13:41;;;;;;;;;;;;;;;6.60;100.00;101621.03;5050745;28;19978;-67
2021/03/24 07:16:12;;;;;;;;;;;;;;;6.64;100.00;101621.72;5050934;28;19932;-68
2021/03/24 07:18:45;;;;;;;;;;;;;;;6.74;100.00;101619.47;5050817;28;19924;-68
2021/03/24 07:21:26;;;;;;;;;;;;;;;6.68;100.00;101623.31;5050306;28;19925;-67
2021/03/24 07:24:02;;;;;;;;;;;;;;;6.75;100.00;101621.19;5031088;28;20279;-68
2021/03/24 07:26:37;;;;;;;;;;;;;;;6.78;100.00;101610.25;5051072;28;19925;-67
2021/03/24 07:29:06;;;;;;;;;;;;;;;6.90;100.00;101611.44;5054276;28;19924;-67
2021/03/24 07:31:38;;;;;;;;;;;;;;;6.93;100.00;101617.53;5054319;28;19924;-67
2021/03/24 07:34:10;;;;;;;;;;;;;;;6.93;100.00;101616.69;5054184;28;19936;-67
2021/03/24 07:37:06;;;;;;;;;;;;;;;7.00;100.00;101621.69;5036499;28;20397;-67
2021/03/24 07:39:51;;;;;;;;;;;;;;;7.11;100.00;101621.13;5054308;28;19931;-68
2021/03/24 07:42:41;;;;;;;;;;;;;;;7.12;100.00;101633.69;5035882;28;20374;-68
2021/03/24 07:45:17;;;;;;;;;;;;;;;7.15;100.00;101629.94;5054033;28;19925;-67
2021/03/24 07:47:51;;;;;;;;;;;;;;;7.18;100.00;101630.63;5036364;28;20378;-67
2021/03/24 07:50:21;;;;;;;;;;;;;;;7.28;100.00;101636.44;5053870;28;20038;-67
2021/03/24 07:52:56;;;;;;;;;;;;;;;7.28;100.00;101635.56;5054064;28;19925;-67
2021/03/24 07:55:27;;;;;;;;;;;;;;;7.23;100.00;101640.31;5054016;28;20283;-67
2021/03/24 07:57:58;;;;;;;;;;;;;;;7.16;100.00;101640.66;5053922;28;19925;-67
2021/03/24 08:00:26;;;;;;;;;;;;;;;7.13;100.00;101638.09;5053139;28;19933;-68
2021/03/24 08:02:56;;;;;;;;;;;;;;;7.30;100.00;101648.03;5056251;28;19924;-67
2021/03/24 08:05:27;;;;;;;;;;;;;;;7.42;100.00;101643.81;5054725;28;20066;-67
2021/03/24 08:07:57;;;;;;;;;;;;;;;7.51;100.00;101643.31;5053550;28;19975;-68
2021/03/24 08:10:28;;;;;;;;;;;;;;;7.56;100.00;101643.06;5054563;28;19928;-67
2021/03/24 08:13:15;;;;;;;;;;;;;;;7.69;100.00;101641.44;5053316;28;19925;-67
2021/03/24 08:15:53;;;;;;;;;;;;;;;7.83;100.00;101640.69;5063207;28;19954;-67
2021/03/24 08:18:23;;;;;;;;;;;;;;;7.92;100.00;101643.84;5069231;28;19928;-67
2021/03/24 08:20:55;;;;;;;;;;;;;;;8.07;100.00;101637.59;5068812;28;19928;-67
2021/03/24 08:23:42;;;;;;;;;;;;;;;8.12;100.00;101640.00;5063401;28;20353;-67
2021/03/24 08:26:13;;;;;;;;;;;;;;;8.13;100.00;101637.22;5066250;28;19924;-67
2021/03/24 08:28:45;;;;;;;;;;;;;;;8.08;100.00;101636.59;5054313;28;19954;-67
2021/03/24 08:31:29;;;;;;;;;;;;;;;8.15;100.00;101640.72;5063653;28;19925;-67
2021/03/24 08:34:03;;;;;;;;;;;;;;;8.12;100.00;101648.13;5049051;28;19951;-67
2021/03/24 08:36:47;;;;;;;;;;;;;;;8.18;100.00;101647.78;5049984;28;19974;-67
2021/03/24 08:39:27;;;;;;;;;;;;;;;8.28;100.00;101640.88;5053466;28;19967;-68
2021/03/24 08:42:11;;;;;;;;;;;;;;;8.31;100.00;101637.13;5034727;28;19982;-67
2021/03/24 08:44:44;;;;;;;;;;;;;;;8.34;100.00;101647.78;5033684;28;19925;-67
2021/03/24 08:47:12;;;;;;;;;;;;;;;8.38;100.00;101634.00;5062092;28;20306;-67
2021/03/24 08:49:41;;;;;;;;;;;;;;;8.52;100.00;101635.06;5060732;28;20074;-68
2021/03/24 08:52:09;;;;;;;;;;;;;;;8.62;100.00;101640.78;5052776;28;19932;-68
2021/03/24 08:54:47;;;;;;;;;;;;;;;8.81;100.00;101643.31;5057327;28;19929;-68
2021/03/24 08:57:17;;;;;;;;;;;;;;;8.87;100.00;101648.34;5063887;28;19951;-68
2021/03/24 08:59:49;;;;;;;;;;;;;;;8.86;100.00;101639.38;5059676;28;19928;-68
2021/03/24 09:02:28;;;;;;;;;;;;;;;8.95;100.00;101646.06;5059312;28;19951;-68
2021/03/24 09:05:08;;;;;;;;;;;;;;;8.95;100.00;101643.38;5056081;28;19932;-67
2021/03/24 09:07:40;;;;;;;;;;;;;;;8.91;100.00;101641.78;5041885;28;20047;-67
2021/03/24 09:10:11;;;;;;;;;;;;;;;8.79;100.00;101639.81;5062542;28;19980;-67
2021/03/24 09:12:39;;;;;;;;;;;;;;;8.88;100.00;101637.44;5050663;28;19929;-67
2021/03/24 09:15:09;;;;;;;;;;;;;;;8.65;100.00;101638.78;5072164;28;20286;-67
2021/03/24 09:17:41;;;;;;;;;;;;;;;8.76;100.00;101646.28;5056133;28;19925;-67
2021/03/24 09:20:35;;;;;;;;;;;;;;;8.53;100.00;101645.78;5053097;28;19928;-68
2021/03/24 09:23:22;;;;;;;;;;;;;;;8.72;100.00;101644.72;5060557;28;20383;-68
2021/03/24 09:25:49;;;;;;;;;;;;;;;8.71;100.00;101645.66;5021715;28;20590;-68
2021/03/24 09:28:39;;;;;;;;;;;;;;;8.91;100.00;101639.06;5052757;28;20274;-67
2021/03/24 09:31:30;;;;;;;;;;;;;;;8.76;100.00;101638.16;5053722;28;19929;-68
2021/03/24 09:33:57;;;;;;;;;;;;;;;8.80;100.00;101645.13;5063261;28;19924;-68
2021/03/24 09:36:50;;;;;;;;;;;;;;;8.80;100.00;101639.72;5061389;28;19924;-68
2021/03/24 09:39:18;;;;;;;;;;;;;;;8.73;100.00;101634.78;5071686;28;20278;-68
2021/03/24 09:41:47;;;;;;;;;;;;;;;8.84;100.00;101627.75;5070816;28;20370;-68
2021/03/24 09:44:16;;;;;;;;;;;;;;;9.19;100.00;101630.19;5053944;28;19934;-68
2021/03/24 09:46:45;;;;;;;;;;;;;;;9.57;100.00;101619.75;5066638;28;19928;-68
2021/03/24 09:49:16;;;;;;;;;;;;;;;9.87;100.00;101625.97;5054180;28;19951;-68
2021/03/24 09:51:44;;;;;;;;;;;;;;;10.10;100.00;101612.75;5051656;28;19925;-68
2021/03/24 09:54:16;;;;;;;;;;;;;;;10.23;100.00;101612.81;5063024;28;20416;-68
2021/03/24 09:56:43;;;;;;;;;;;;;;;10.02;100.00;101609.63;5070898;28;19935;-68
2021/03/24 09:59:17;;;;;;;;;;;;;;;9.75;100.00;101610.44;5069137;28;19939;-68
2021/03/24 10:01:53;;;;;;;;;;;;;;;9.66;100.00;101609.22;5070974;28;19928;-68
2021/03/24 10:04:31;;;;;;;;;;;;;;;9.61;100.00;101602.34;5051380;28;20345;-68
2021/03/24 10:07:03;;;;;;;;;;;;;;;9.52;100.00;101601.94;5052265;28;19925;-68
2021/03/24 10:09:34;;;;;;;;;;;;;;;9.60;100.00;101598.75;5051224;28;19978;-68
2021/03/24 10:12:05;;;;;;;;;;;;;;;9.57;100.00;101603.47;5056163;28;20026;-68
2021/03/24 10:14:33;;;;;;;;;;;;;;;9.65;100.00;101602.03;5062297;28;19948;-68
2021/03/24 10:17:01;;;;;;;;;;;;;;;9.93;100.00;101602.09;5066720;28;19962;-68
2021/03/24 10:19:31;;;;;;;;;;;;;;;10.03;100.00;101598.72;5050114;28;19935;-68
2021/03/24 10:21:59;;;;;;;;;;;;;;;9.81;100.00;101591.09;5050493;28;19971;-67
2021/03/24 10:24:28;;;;;;;;;;;;;;;9.85;100.00;101597.19;5063935;28;19925;-68
2021/03/24 10:26:54;;;;;;;;;;;;;;;9.80;100.00;101593.91;5052289;28;19931;-67
2021/03/24 10:29:23;;;;;;;;;;;;;;;9.77;100.00;101603.09;5050995;28;20001;-68
2021/03/24 10:31:51;;;;;;;;;;;;;;;9.76;100.00;101595.06;5058096;28;19928;-68
2021/03/24 10:34:20;;;;;;;;;;;;;;;9.54;100.00;101597.31;5071231;28;19947;-67
2021/03/24 10:36:50;;;;;;;;;;;;;;;9.63;100.00;101590.41;5066959;28;21039;-67
2021/03/24 10:39:20;;;;;;;;;;;;;;;9.59;100.00;101594.28;5055500;28;19982;-68
2021/03/24 10:41:51;;;;;;;;;;;;;;;9.40;100.00;101589.16;5070380;28;19994;-68
2021/03/24 10:44:20;;;;;;;;;;;;;;;9.13;100.00;101587.19;5068145;28;19956;-67
2021/03/24 10:46:58;;;;;;;;;;;;;;;9.39;100.00;101595.53;5070556;28;19956;-65
2021/03/24 10:49:27;;;;;;;;;;;;;;;9.31;100.00;101589.72;5065819;28;19956;-67
2021/03/24 10:51:57;;;;;;;;;;;;;;;9.53;100.00;101590.13;5069208;28;19939;-66
2021/03/24 10:54:25;;;;;;;;;;;;;;;9.58;100.00;101591.69;5070626;28;19931;-66
2021/03/24 10:57:00;;;;;;;;;;;;;;;9.56;100.00;101580.94;5066843;28;19928;-67
2021/03/24 10:59:31;;;;;;;;;;;;;;;9.75;100.00;101583.34;5060473;28;19932;-67
2021/03/24 11:01:58;;;;;;;;;;;;;;;9.74;100.00;101575.31;5066082;28;19924;-66
2021/03/24 11:04:34;;;;;;;;;;;;;;;9.79;100.00;101573.16;5068126;28;19943;-66
2021/03/24 11:07:03;;;;;;;;;;;;;;;10.02;100.00;101577.09;5068104;28;20348;-66
2021/03/24 11:09:37;;;;;;;;;;;;;;;10.20;100.00;101564.16;5065718;28;19933;-66
2021/03/24 11:12:05;;;;;;;;;;;;;;;10.03;100.00;101570.69;5062984;28;19964;-66
2021/03/24 11:14:34;;;;;;;;;;;;;;;9.76;100.00;101574.25;5062250;28;20427;-66
2021/03/24 11:17:06;;;;;;;;;;;;;;;9.65;100.00;101568.66;5062241;28;19928;-66
2021/03/24 11:19:35;;;;;;;;;;;;;;;9.72;100.00;101567.28;5066794;28;19928;-67
2021/03/24 11:22:18;;;;;;;;;;;;;;;9.88;100.00;101575.28;5066045;28;20042;-67
2021/03/24 11:24:48;;;;;;;;;;;;;;;9.68;100.00;101565.72;5064950;28;19924;-66
2021/03/24 11:27:22;;;;;;;;;;;;;;;9.70;100.00;101567.38;5056641;28;20298;-67
2021/03/24 11:29:52;;;;;;;;;;;;;;;9.91;100.00;101576.94;5061871;28;19925;-66
2021/03/24 11:32:22;;;;;;;;;;;;;;;9.83;100.00;101566.56;5070567;28;19925;-67
2021/03/24 11:34:52;;;;;;;;;;;;;;;9.40;100.00;101561.19;5060006;28;19932;-67
2021/03/24 11:37:33;;;;;;;;;;;;;;;9.34;100.00;101568.75;5060847;28;19928;-67
2021/03/24 11:40:07;;;;;;;;;;;;;;;9.45;100.00;101562.66;5067841;28;19960;-67
2021/03/24 11:42:34;;;;;;;;;;;;;;;9.58;100.00;101572.69;5056255;28;20333;-67
2021/03/24 11:45:00;;;;;;;;;;;;;;;9.65;100.00;101561.38;5064799;28;20262;-67
2021/03/24 11:47:42;;;;;;;;;;;;;;;9.67;100.00;101566.69;5061343;28;20398;-67
2021/03/24 11:50:12;;;;;;;;;;;;;;;9.84;100.00;101561.06;5064165;28;19925;-67
2021/03/24 11:52:51;;;;;;;;;;;;;;;9.95;100.00;101551.34;5060076;28;19925;-67
2021/03/24 11:55:35;;;;;;;;;;;;;;;10.12;100.00;101553.81;5058841;28;19935;-66
2021/03/24 11:58:05;;;;;;;;;;;;;;;10.16;100.00;101552.63;5053532;28;19944;-67
2021/03/24 12:00:33;;;;;;;;;;;;;;;10.20;100.00;101546.03;5058995;28;19924;-66
2021/03/24 12:03:08;;;;;;;;;;;;;;;10.32;100.00;101538.06;5057882;28;19925;-66
2021/03/24 12:05:39;;;;;;;;;;;;;;;10.23;100.00;101542.25;5067242;28;19947;-66
2021/03/24 12:08:11;;;;;;;;;;;;;;;9.86;100.00;101536.53;5069917;28;19928;-66
2021/03/24 12:10:38;;;;;;;;;;;;;;;9.94;100.00;101534.22;5073913;28;19932;-67
2021/03/24 12:13:12;;;;;;;;;;;;;;;10.16;100.00;101533.66;5057117;28;19925;-67
2021/03/24 12:15:39;;;;;;;;;;;;;;;10.41;100.00;101520.31;5054778;28;19924;-66
2021/03/24 12:18:10;;;;;;;;;;;;;;;10.39;100.00;101523.13;5054394;28;19928;-66
2021/03/24 12:20:52;;;;;;;;;;;;;;;10.40;100.00;101522.16;5083053;28;19931;-67
2021/03/24 12:23:19;;;;;;;;;;;;;;;10.55;100.00;101518.41;5055797;28;19975;-67
2021/03/24 12:25:46;;;;;;;;;;;;;;;10.79;100.00;101514.94;5069557;28;20031;-67
2021/03/24 12:28:12;;;;;;;;;;;;;;;11.16;100.00;101511.50;5059827;28;19924;-65
2021/03/24 12:30:43;;;;;;;;;;;;;;;11.30;100.00;101511.34;5070037;28;19966;-65
2021/03/24 12:33:16;;;;;;;;;;;;;;;11.36;99.44;101507.34;5072704;28;20040;-65
2021/03/24 12:35:42;;;;;;;;;;;;;;;11.56;100.00;101509.47;5053493;28;20454;-65
2021/03/24 12:38:11;;;;;;;;;;;;;;;11.75;99.65;101499.97;5054191;28;19931;-65
2021/03/24 12:40:47;;;;;;;;;;;;;;;12.29;96.96;101493.22;5072997;28;19925;-65
2021/03/24 12:43:18;;;;;;;;;;;;;;;12.90;91.58;101489.47;5071722;28;19924;-65
2021/03/24 12:45:44;;;;;;;;;;;;;;;13.11;88.88;101489.63;5053453;28;19948;-65
2021/03/24 12:48:12;;;;;;;;;;;;;;;13.00;84.59;101484.13;5055332;28;20402;-65
2021/03/24 12:50:40;;;;;;;;;;;;;;;13.26;85.36;101487.50;5053230;28;20386;-66
2021/03/24 12:53:13;;;;;;;;;;;;;;;13.93;80.20;101483.00;5053319;28;19977;-66
2021/03/24 12:55:40;;;;;;;;;;;;;;;13.99;75.09;101476.16;5053618;28;19925;-66